Time;durP1;ratioP1;P1;durP2;ratioP2;P2;SDS_P1;SDS_P2;PMS_P1;PMS_P2;Temp;Humidity;BMP_temperature;BMP_pressure;BME280_temperature;BME280_humidity;BME280_pressure;Samples;Min_cycle;Max_cycle;Signal;HPM_P1;HPM_P2
2023/12/09 00:02:07;;;;;;;30.30;16.50;;;;;;;;;;776153;181;919050;-62
2023/12/09 00:04:32;;;;;;;26.47;17.73;;;;;;;;;;770644;180;916446;-64
2023/12/09 00:06:58;;;;;;;33.70;17.25;;;;;;;;;;771494;180;817221;-64
2023/12/09 00:09:24;;;;;;;28.43;16.30;;;;;;;;;;779184;179;916808;-63
2023/12/09 00:11:50;;;;;;;28.97;17.03;;;;;;;;;;776907;179;815498;-64
2023/12/09 00:14:16;;;;;;;33.03;18.60;;;;;;;;;;773173;180;917362;-65
2023/12/09 00:16:42;;;;;;;32.38;17.25;;;;;;;;;;777114;180;910811;-61
2023/12/09 00:19:09;;;;;;;32.40;15.47;;;;;;;;;;777711;179;918922;-63
2023/12/09 00:21:34;;;;;;;32.50;16.83;;;;;;;;;;770737;180;934781;-63
2023/12/09 00:24:00;;;;;;;24.80;15.10;;;;;;;;;;773089;178;919732;-61
2023/12/09 00:26:26;;;;;;;29.33;17.23;;;;;;;;;;776068;178;919435;-60
2023/12/09 00:28:52;;;;;;;29.63;14.90;;;;;;;;;;776531;180;791669;-61
2023/12/09 00:31:18;;;;;;;32.10;15.50;;;;;;;;;;775389;181;917582;-60
2023/12/09 00:33:43;;;;;;;29.30;16.03;;;;;;;;;;778913;179;919083;-61
2023/12/09 00:36:09;;;;;;;28.57;15.80;;;;;;;;;;760319;184;816402;-61
2023/12/09 00:38:35;;;;;;;27.30;16.80;;;;;;;;;;768795;181;919196;-61
2023/12/09 00:41:01;;;;;;;29.10;16.20;;;;;;;;;;778966;180;908156;-61
2023/12/09 00:43:27;;;;;;;34.53;18.17;;;;;;;;;;775620;180;926374;-63
2023/12/09 00:45:53;;;;;;;22.70;13.30;;;;;;;;;;768331;180;919030;-64
2023/12/09 00:48:18;;;;;;;27.33;15.37;;;;;;;;;;771166;179;859613;-60
2023/12/09 00:50:44;;;;;;;28.10;16.37;;;;;;;;;;778378;179;813880;-64
2023/12/09 00:53:12;;;;;;;29.60;16.60;;;;;;;;;;761614;181;918317;-64
2023/12/09 00:55:36;;;;;;;28.20;15.47;;;;;;;;;;775790;178;920695;-61
2023/12/09 00:58:02;;;;;;;31.48;16.83;;;;;;;;;;776608;180;918112;-64
2023/12/09 01:00:28;;;;;;;30.47;15.93;;;;;;;;;;775077;180;918926;-64
2023/12/09 01:02:54;;;;;;;29.97;16.80;;;;;;;;;;762475;180;919318;-61
2023/12/09 01:05:19;;;;;;;34.10;17.70;;;;;;;;;;776533;179;913423;-63
2023/12/09 01:07:45;;;;;;;30.53;16.63;;;;;;;;;;773616;180;918413;-61
2023/12/09 01:10:11;;;;;;;31.30;17.07;;;;;;;;;;775301;180;919385;-61
2023/12/09 01:12:37;;;;;;;26.58;15.90;;;;;;;;;;771655;179;919403;-63
2023/12/09 01:15:03;;;;;;;27.83;16.90;;;;;;;;;;774170;180;914211;-61
2023/12/09 01:17:29;;;;;;;32.13;16.47;;;;;;;;;;771922;180;915399;-63
2023/12/09 01:19:55;;;;;;;31.35;18.08;;;;;;;;;;771547;180;924090;-63
2023/12/09 01:22:21;;;;;;;32.70;18.37;;;;;;;;;;783898;177;809361;-63
2023/12/09 01:24:47;;;;;;;31.43;17.40;;;;;;;;;;776733;177;915450;-61
2023/12/09 01:27:12;;;;;;;36.37;18.03;;;;;;;;;;774683;179;946628;-63
2023/12/09 01:29:38;;;;;;;30.27;17.60;;;;;;;;;;780602;180;816546;-61
2023/12/09 01:32:04;;;;;;;32.93;17.87;;;;;;;;;;774509;180;920046;-63
2023/12/09 01:34:30;;;;;;;31.90;18.90;;;;;;;;;;771382;179;920280;-63
2023/12/09 01:36:56;;;;;;;28.70;14.80;;;;;;;;;;773928;180;920688;-61
2023/12/09 01:39:22;;;;;;;38.60;19.17;;;;;;;;;;772761;178;919493;-65
2023/12/09 01:41:48;;;;;;;30.00;15.93;;;;;;;;;;774409;178;917543;-64
2023/12/09 01:44:14;;;;;;;30.47;17.03;;;;;;;;;;774309;178;815706;-61
2023/12/09 01:46:39;;;;;;;28.47;16.57;;;;;;;;;;766143;181;917234;-61
2023/12/09 01:49:05;;;;;;;31.47;19.40;;;;;;;;;;769550;180;923176;-63
2023/12/09 01:51:31;;;;;;;33.33;18.42;;;;;;;;;;773439;179;918782;-63
2023/12/09 01:53:57;;;;;;;33.47;18.47;;;;;;;;;;778783;179;921412;-64
2023/12/09 01:56:23;;;;;;;36.93;16.93;;;;;;;;;;775302;178;920880;-61
2023/12/09 01:58:49;;;;;;;30.93;19.00;;;;;;;;;;773722;177;920910;-63
2023/12/09 02:01:15;;;;;;;27.35;16.30;;;;;;;;;;778889;180;920717;-65
2023/12/09 02:03:40;;;;;;;24.40;16.27;;;;;;;;;;774591;179;816882;-64
2023/12/09 02:06:06;;;;;;;32.33;18.70;;;;;;;;;;767048;181;926392;-60
2023/12/09 02:08:33;;;;;;;34.55;19.10;;;;;;;;;;774397;178;918019;-63
2023/12/09 02:11:02;;;;;;;31.83;16.10;;;;;;;;;;772293;181;910533;-61
2023/12/09 02:13:28;;;;;;;29.75;17.67;;;;;;;;;;765936;180;1013637;-61
2023/12/09 02:16:11;;;;;;;29.10;17.83;;;;;;;;;;767977;180;919132;-62
2023/12/09 02:18:37;;;;;;;36.13;19.30;;;;;;;;;;774465;180;920200;-63
2023/12/09 02:21:02;;;;;;;31.27;16.87;;;;;;;;;;779752;180;876961;-63
2023/12/09 02:23:28;;;;;;;36.60;19.23;;;;;;;;;;768606;180;917534;-60
2023/12/09 02:25:54;;;;;;;32.50;17.60;;;;;;;;;;772371;180;819356;-60
2023/12/09 02:28:20;;;;;;;33.60;17.20;;;;;;;;;;776823;179;821104;-63
2023/12/09 02:30:55;;;;;;;32.17;17.47;;;;;;;;;;768350;181;922048;-60
2023/12/09 02:33:21;;;;;;;30.77;17.70;;;;;;;;;;775198;176;918544;-61
2023/12/09 02:35:47;;;;;;;35.47;17.40;;;;;;;;;;773517;180;922763;-63
2023/12/09 02:38:13;;;;;;;31.07;17.20;;;;;;;;;;768282;181;918936;-61
2023/12/09 02:40:39;;;;;;;31.03;19.10;;;;;;;;;;767169;180;920744;-63
2023/12/09 02:43:05;;;;;;;30.70;15.50;;;;;;;;;;771181;180;629413;-64
2023/12/09 02:45:31;;;;;;;28.95;16.35;;;;;;;;;;777898;180;925243;-62
2023/12/09 02:47:57;;;;;;;30.63;17.60;;;;;;;;;;775367;180;920212;-64
2023/12/09 02:50:23;;;;;;;31.27;17.93;;;;;;;;;;773485;180;918645;-63
2023/12/09 02:52:49;;;;;;;32.90;16.67;;;;;;;;;;766757;178;937180;-63
2023/12/09 02:55:14;;;;;;;31.93;18.13;;;;;;;;;;763037;182;815981;-61
2023/12/09 02:57:40;;;;;;;33.90;18.30;;;;;;;;;;773269;180;919135;-61
2023/12/09 03:00:07;;;;;;;30.30;17.33;;;;;;;;;;775052;179;918683;-61
2023/12/09 03:02:32;;;;;;;24.80;14.20;;;;;;;;;;777828;180;917459;-63
2023/12/09 03:04:58;;;;;;;26.90;15.03;;;;;;;;;;776368;178;894048;-62
2023/12/09 03:07:24;;;;;;;23.27;15.00;;;;;;;;;;777868;180;918878;-61
2023/12/09 03:09:50;;;;;;;29.07;14.93;;;;;;;;;;775523;180;909273;-60
2023/12/09 03:12:16;;;;;;;26.77;15.73;;;;;;;;;;768659;180;917980;-61
2023/12/09 03:14:42;;;;;;;21.00;13.30;;;;;;;;;;766009;180;918065;-63
2023/12/09 03:17:07;;;;;;;24.10;12.53;;;;;;;;;;767084;180;919279;-61
2023/12/09 03:19:33;;;;;;;21.27;12.90;;;;;;;;;;774414;180;821781;-63
2023/12/09 03:21:59;;;;;;;25.40;14.20;;;;;;;;;;772756;177;915659;-61
2023/12/09 03:24:25;;;;;;;20.17;12.30;;;;;;;;;;772417;180;920450;-61
2023/12/09 03:26:51;;;;;;;23.20;11.63;;;;;;;;;;774473;181;915203;-64
2023/12/09 03:29:17;;;;;;;20.40;12.50;;;;;;;;;;772410;177;877740;-61
2023/12/09 03:31:43;;;;;;;22.07;13.30;;;;;;;;;;765193;180;920295;-64
2023/12/09 03:34:08;;;;;;;24.35;13.85;;;;;;;;;;776414;180;1027022;-63
2023/12/09 03:36:34;;;;;;;21.33;10.60;;;;;;;;;;773613;180;919336;-63
2023/12/09 03:39:00;;;;;;;21.95;11.63;;;;;;;;;;763821;180;925479;-64
2023/12/09 03:41:26;;;;;;;21.92;10.73;;;;;;;;;;772191;180;920066;-63
2023/12/09 03:43:52;;;;;;;18.97;10.37;;;;;;;;;;777169;180;920298;-61
2023/12/09 03:46:18;;;;;;;16.63;9.87;;;;;;;;;;777327;180;825395;-64
2023/12/09 03:48:44;;;;;;;18.93;10.40;;;;;;;;;;775716;180;919006;-63
2023/12/09 03:51:10;;;;;;;22.37;11.27;;;;;;;;;;777131;180;814415;-64
2023/12/09 03:53:36;;;;;;;18.07;11.30;;;;;;;;;;767520;180;919702;-61
2023/12/09 03:56:03;;;;;;;19.37;11.10;;;;;;;;;;775069;181;921153;-63
2023/12/09 03:58:27;;;;;;;18.20;11.90;;;;;;;;;;780156;179;918215;-64
2023/12/09 04:00:53;;;;;;;24.80;14.23;;;;;;;;;;775337;180;918603;-61
2023/12/09 04:03:19;;;;;;;24.37;14.33;;;;;;;;;;774410;180;914849;-60
2023/12/09 04:05:45;;;;;;;26.60;15.20;;;;;;;;;;776419;180;914128;-64
2023/12/09 04:08:11;;;;;;;19.53;13.60;;;;;;;;;;774686;178;916122;-64
2023/12/09 04:10:36;;;;;;;22.17;11.80;;;;;;;;;;771740;179;939472;-63
2023/12/09 04:13:02;;;;;;;24.35;13.27;;;;;;;;;;773045;178;920684;-64
2023/12/09 04:15:28;;;;;;;18.90;12.03;;;;;;;;;;766486;181;917324;-60
2023/12/09 04:17:54;;;;;;;23.02;13.07;;;;;;;;;;766431;180;917949;-63
2023/12/09 04:20:20;;;;;;;22.33;13.17;;;;;;;;;;770371;178;919823;-64
2023/12/09 04:22:47;;;;;;;21.43;12.10;;;;;;;;;;774552;179;917737;-61
2023/12/09 04:25:12;;;;;;;23.87;12.53;;;;;;;;;;772471;181;919142;-60
2023/12/09 04:27:37;;;;;;;23.90;12.30;;;;;;;;;;775975;178;820167;-60
2023/12/09 04:30:04;;;;;;;18.60;11.73;;;;;;;;;;773726;180;846830;-61
2023/12/09 04:32:30;;;;;;;27.80;13.67;;;;;;;;;;775421;180;920034;-61
2023/12/09 04:34:56;;;;;;;20.35;13.45;;;;;;;;;;770466;177;999099;-60
2023/12/09 04:37:22;;;;;;;22.60;12.35;;;;;;;;;;772946;180;912000;-61
2023/12/09 04:39:48;;;;;;;23.60;13.00;;;;;;;;;;775089;177;816404;-64
2023/12/09 04:42:14;;;;;;;23.37;13.13;;;;;;;;;;773669;179;918376;-64
2023/12/09 04:44:40;;;;;;;27.30;13.13;;;;;;;;;;768909;180;929637;-60
2023/12/09 04:47:06;;;;;;;22.93;12.30;;;;;;;;;;775753;180;921537;-63
2023/12/09 04:49:31;;;;;;;21.57;13.97;;;;;;;;;;774405;181;918511;-61
2023/12/09 04:51:57;;;;;;;19.00;11.77;;;;;;;;;;774674;180;919965;-60
2023/12/09 04:54:23;;;;;;;25.80;13.63;;;;;;;;;;779440;180;920673;-61
2023/12/09 04:56:49;;;;;;;19.97;12.10;;;;;;;;;;775299;179;918384;-61
2023/12/09 04:59:15;;;;;;;23.95;14.57;;;;;;;;;;770037;177;929925;-61
2023/12/09 05:01:41;;;;;;;24.70;13.43;;;;;;;;;;777399;179;919087;-60
2023/12/09 05:04:07;;;;;;;24.70;13.13;;;;;;;;;;773450;178;919368;-61
2023/12/09 05:06:32;;;;;;;27.63;14.13;;;;;;;;;;775316;180;830883;-60
2023/12/09 05:08:58;;;;;;;24.30;12.03;;;;;;;;;;774943;177;917968;-63
2023/12/09 05:11:24;;;;;;;22.07;13.40;;;;;;;;;;779081;178;817463;-61
2023/12/09 05:13:50;;;;;;;21.90;12.13;;;;;;;;;;761044;183;919397;-63
2023/12/09 05:16:16;;;;;;;21.13;12.03;;;;;;;;;;771511;181;817338;-64
2023/12/09 05:18:42;;;;;;;32.03;13.70;;;;;;;;;;777837;179;911433;-60
2023/12/09 05:21:08;;;;;;;18.83;11.20;;;;;;;;;;774749;178;915794;-63
2023/12/09 05:23:34;;;;;;;21.67;12.37;;;;;;;;;;777972;178;769449;-63
2023/12/09 05:25:59;;;;;;;21.57;11.27;;;;;;;;;;777790;177;917730;-63
2023/12/09 05:28:25;;;;;;;18.70;11.27;;;;;;;;;;763139;179;916429;-63
2023/12/09 05:30:51;;;;;;;23.00;11.67;;;;;;;;;;762553;180;895844;-60
2023/12/09 05:33:18;;;;;;;19.75;11.88;;;;;;;;;;774173;178;916911;-63
2023/12/09 05:35:44;;;;;;;21.60;12.87;;;;;;;;;;772097;178;920196;-60
2023/12/09 05:38:09;;;;;;;16.60;10.77;;;;;;;;;;772350;180;917334;-60
2023/12/09 05:40:35;;;;;;;21.83;11.30;;;;;;;;;;768806;180;819713;-60
2023/12/09 05:43:01;;;;;;;25.23;12.57;;;;;;;;;;778710;178;842140;-63
2023/12/09 05:45:27;;;;;;;19.20;13.10;;;;;;;;;;769475;177;907393;-63
2023/12/09 05:47:53;;;;;;;19.30;12.40;;;;;;;;;;759225;181;940939;-63
2023/12/09 05:50:19;;;;;;;23.00;12.43;;;;;;;;;;775935;180;918632;-60
2023/12/09 05:52:45;;;;;;;20.20;12.30;;;;;;;;;;769349;178;918983;-60
2023/12/09 05:55:10;;;;;;;22.13;13.03;;;;;;;;;;765836;181;919945;-60
2023/12/09 05:57:36;;;;;;;29.00;13.27;;;;;;;;;;776602;180;918681;-63
2023/12/09 06:00:02;;;;;;;19.43;11.97;;;;;;;;;;771718;177;895681;-63
2023/12/09 06:02:28;;;;;;;20.93;13.00;;;;;;;;;;773389;180;914489;-62
2023/12/09 06:04:54;;;;;;;27.23;12.60;;;;;;;;;;763206;180;815900;-60
2023/12/09 06:07:20;;;;;;;19.08;11.07;;;;;;;;;;776571;179;917273;-63
2023/12/09 06:09:46;;;;;;;23.03;13.03;;;;;;;;;;774442;180;917697;-63
2023/12/09 06:12:12;;;;;;;21.47;12.87;;;;;;;;;;775663;178;825159;-64
2023/12/09 06:14:37;;;;;;;23.07;12.80;;;;;;;;;;780051;180;918294;-64
2023/12/09 06:17:03;;;;;;;27.70;14.20;;;;;;;;;;772038;181;920458;-61
2023/12/09 06:19:29;;;;;;;22.07;13.70;;;;;;;;;;775020;178;920939;-62
2023/12/09 06:21:55;;;;;;;23.00;12.10;;;;;;;;;;776545;180;925099;-60
2023/12/09 06:24:21;;;;;;;20.67;11.80;;;;;;;;;;761902;180;920890;-60
2023/12/09 06:26:47;;;;;;;21.43;13.23;;;;;;;;;;765795;181;953914;-60
2023/12/09 06:29:13;;;;;;;22.13;12.53;;;;;;;;;;772185;180;1021479;-61
2023/12/09 06:31:38;;;;;;;22.03;12.83;;;;;;;;;;760911;184;917780;-63
2023/12/09 06:34:04;;;;;;;21.93;13.77;;;;;;;;;;762671;180;908064;-64
2023/12/09 06:36:30;;;;;;;24.17;12.67;;;;;;;;;;768408;180;1019267;-61
2023/12/09 06:38:56;;;;;;;21.60;13.00;;;;;;;;;;775339;180;920267;-64
2023/12/09 06:41:22;;;;;;;19.33;11.93;;;;;;;;;;774743;178;842116;-64
2023/12/09 06:43:48;;;;;;;28.25;13.45;;;;;;;;;;771755;178;917987;-61
2023/12/09 06:46:13;;;;;;;16.27;11.47;;;;;;;;;;777447;180;918680;-63
2023/12/09 06:48:39;;;;;;;25.25;12.48;;;;;;;;;;769567;180;919832;-63
2023/12/09 06:51:08;;;;;;;22.90;13.43;;;;;;;;;;769361;180;921765;-64
2023/12/09 06:53:34;;;;;;;23.02;13.32;;;;;;;;;;775007;180;917630;-61
2023/12/09 06:56:00;;;;;;;19.17;12.87;;;;;;;;;;773393;177;840328;-63
2023/12/09 06:58:26;;;;;;;20.57;11.40;;;;;;;;;;772594;177;911217;-64
2023/12/09 07:00:52;;;;;;;20.55;12.07;;;;;;;;;;770527;179;918789;-61
2023/12/09 07:03:17;;;;;;;22.37;13.80;;;;;;;;;;778651;180;917986;-63
2023/12/09 07:05:43;;;;;;;26.73;14.43;;;;;;;;;;770831;177;900814;-63
2023/12/09 07:08:10;;;;;;;21.60;13.40;;;;;;;;;;769421;179;920411;-63
2023/12/09 07:10:35;;;;;;;22.83;13.30;;;;;;;;;;776008;180;1019626;-61
2023/12/09 07:13:01;;;;;;;27.50;14.83;;;;;;;;;;767778;181;920033;-63
2023/12/09 07:15:27;;;;;;;29.57;14.93;;;;;;;;;;770056;180;815876;-61
2023/12/09 07:17:52;;;;;;;23.57;12.80;;;;;;;;;;773988;180;891140;-61
2023/12/09 07:20:18;;;;;;;28.87;15.80;;;;;;;;;;775996;177;915989;-61
2023/12/09 07:22:44;;;;;;;22.62;13.43;;;;;;;;;;772441;180;918382;-61
2023/12/09 07:25:10;;;;;;;27.70;15.53;;;;;;;;;;776264;179;829174;-61
2023/12/09 07:27:36;;;;;;;23.75;13.82;;;;;;;;;;769269;180;935366;-61
2023/12/09 07:30:02;;;;;;;28.03;14.93;;;;;;;;;;774563;180;919532;-62
2023/12/09 07:32:27;;;;;;;28.47;15.77;;;;;;;;;;775756;179;919854;-65
2023/12/09 07:34:54;;;;;;;27.00;17.30;;;;;;;;;;779815;180;811024;-61
2023/12/09 07:37:19;;;;;;;28.13;16.03;;;;;;;;;;769738;180;918556;-62
2023/12/09 07:39:45;;;;;;;32.27;18.13;;;;;;;;;;772841;180;918261;-61
2023/12/09 07:42:11;;;;;;;30.30;16.17;;;;;;;;;;771379;179;907865;-64
2023/12/09 07:44:37;;;;;;;22.97;15.27;;;;;;;;;;771860;180;816803;-64
2023/12/09 07:47:03;;;;;;;27.80;14.30;;;;;;;;;;774393;177;915522;-64
2023/12/09 07:49:29;;;;;;;30.40;16.90;;;;;;;;;;762985;181;856444;-65
2023/12/09 07:51:54;;;;;;;28.53;15.00;;;;;;;;;;766898;181;917541;-64
2023/12/09 07:54:20;;;;;;;26.07;14.43;;;;;;;;;;771351;177;918735;-65
2023/12/09 07:56:46;;;;;;;21.77;13.60;;;;;;;;;;772823;180;918532;-62
2023/12/09 07:59:12;;;;;;;23.63;14.50;;;;;;;;;;779531;180;913836;-61
2023/12/09 08:01:38;;;;;;;22.17;12.87;;;;;;;;;;770722;180;917679;-64
2023/12/09 08:04:04;;;;;;;30.53;15.40;;;;;;;;;;769371;180;918738;-62
2023/12/09 08:06:29;;;;;;;23.47;13.30;;;;;;;;;;776613;180;910808;-62
2023/12/09 08:08:56;;;;;;;32.70;15.40;;;;;;;;;;771396;178;897954;-65
2023/12/09 08:11:22;;;;;;;26.73;15.73;;;;;;;;;;773569;178;917388;-64
2023/12/09 08:13:49;;;;;;;24.93;14.60;;;;;;;;;;775622;180;920914;-62
2023/12/09 08:16:15;;;;;;;28.90;15.50;;;;;;;;;;770005;180;922581;-64
2023/12/09 08:18:42;;;;;;;25.10;14.67;;;;;;;;;;770754;180;1021302;-62
2023/12/09 08:21:07;;;;;;;27.67;14.50;;;;;;;;;;764470;178;919703;-62
2023/12/09 08:23:33;;;;;;;31.85;15.25;;;;;;;;;;777829;180;710022;-64
2023/12/09 08:25:58;;;;;;;23.07;14.27;;;;;;;;;;769879;180;921827;-62
2023/12/09 08:28:27;;;;;;;23.60;14.85;;;;;;;;;;771189;177;811025;-63
2023/12/09 08:30:51;;;;;;;25.77;14.97;;;;;;;;;;772446;179;897855;-62
2023/12/09 08:33:16;;;;;;;30.17;16.37;;;;;;;;;;772966;179;964340;-62
2023/12/09 08:35:42;;;;;;;25.63;13.80;;;;;;;;;;774358;177;818470;-64
2023/12/09 08:38:08;;;;;;;25.93;15.37;;;;;;;;;;778258;177;859445;-63
2023/12/09 08:40:34;;;;;;;25.97;12.00;;;;;;;;;;772635;177;915229;-65
2023/12/09 08:42:59;;;;;;;21.05;12.00;;;;;;;;;;771798;180;927210;-66
2023/12/09 08:45:26;;;;;;;21.97;13.70;;;;;;;;;;772212;177;916097;-65
2023/12/09 08:47:53;;;;;;;25.33;14.70;;;;;;;;;;772975;177;914190;-65
2023/12/09 08:50:19;;;;;;;28.23;12.50;;;;;;;;;;773430;177;873156;-63
2023/12/09 08:52:45;;;;;;;23.48;13.90;;;;;;;;;;771025;177;893357;-64
2023/12/09 08:55:11;;;;;;;22.93;13.70;;;;;;;;;;774674;178;920991;-64
2023/12/09 08:57:37;;;;;;;22.50;13.57;;;;;;;;;;770237;180;933938;-63
2023/12/09 09:00:08;;;;;;;25.57;15.23;;;;;;;;;;774613;181;663237;-64
2023/12/09 09:02:30;;;;;;;21.80;13.67;;;;;;;;;;777985;178;723210;-63
2023/12/09 09:04:54;;;;;;;26.70;14.80;;;;;;;;;;774569;178;937138;-64
2023/12/09 09:07:20;;;;;;;22.13;13.80;;;;;;;;;;772798;177;1013484;-63
2023/12/09 09:09:46;;;;;;;25.17;13.37;;;;;;;;;;775596;178;669602;-65
2023/12/09 09:12:12;;;;;;;21.37;13.97;;;;;;;;;;770406;180;921035;-65
2023/12/09 09:14:38;;;;;;;24.53;12.70;;;;;;;;;;770394;180;910162;-65
2023/12/09 09:17:04;;;;;;;24.93;13.67;;;;;;;;;;770973;178;883537;-62
2023/12/09 09:19:30;;;;;;;26.83;16.60;;;;;;;;;;777586;180;828979;-65
2023/12/09 09:21:56;;;;;;;31.50;15.20;;;;;;;;;;771251;180;918978;-63
2023/12/09 09:24:21;;;;;;;32.67;18.33;;;;;;;;;;772632;180;817373;-66
2023/12/09 09:26:47;;;;;;;29.23;17.27;;;;;;;;;;777486;180;815266;-65
2023/12/09 09:29:13;;;;;;;28.97;15.93;;;;;;;;;;770984;180;925188;-66
2023/12/09 09:31:39;;;;;;;29.70;16.40;;;;;;;;;;771537;177;834404;-65
2023/12/09 09:34:05;;;;;;;29.20;16.93;;;;;;;;;;777419;177;914704;-63
2023/12/09 09:36:31;;;;;;;29.10;16.17;;;;;;;;;;775541;180;806602;-63
2023/12/09 09:38:57;;;;;;;32.50;16.70;;;;;;;;;;772671;180;808687;-69
2023/12/09 09:41:23;;;;;;;28.10;15.60;;;;;;;;;;772142;181;918646;-65
2023/12/09 09:43:49;;;;;;;29.92;15.65;;;;;;;;;;779191;177;817266;-62
2023/12/09 09:46:15;;;;;;;34.97;16.37;;;;;;;;;;773188;180;1021591;-66
2023/12/09 09:48:41;;;;;;;26.83;16.23;;;;;;;;;;776260;177;918785;-65
2023/12/09 09:51:07;;;;;;;32.60;17.30;;;;;;;;;;777815;178;817748;-66
2023/12/09 09:53:35;;;;;;;30.47;17.67;;;;;;;;;;775237;179;728472;-63
2023/12/09 09:56:01;;;;;;;29.90;19.50;;;;;;;;;;777882;178;623524;-65
2023/12/09 09:58:27;;;;;;;35.80;17.30;;;;;;;;;;777629;179;789411;-63
2023/12/09 10:00:55;;;;;;;31.40;18.00;;;;;;;;;;773165;180;625833;-63
2023/12/09 10:03:19;;;;;;;35.90;19.27;;;;;;;;;;769859;180;862402;-63
2023/12/09 10:05:45;;;;;;;33.70;18.63;;;;;;;;;;771129;180;918917;-66
2023/12/09 10:08:11;;;;;;;37.97;19.50;;;;;;;;;;775707;180;897474;-64
2023/12/09 10:10:37;;;;;;;36.73;20.00;;;;;;;;;;771179;179;918772;-64
2023/12/09 10:13:02;;;;;;;31.60;19.23;;;;;;;;;;773754;178;919239;-64
2023/12/09 10:15:28;;;;;;;40.63;20.37;;;;;;;;;;771417;180;841017;-63
2023/12/09 10:17:54;;;;;;;40.07;20.77;;;;;;;;;;765381;181;917727;-63
2023/12/09 10:20:20;;;;;;;40.23;20.30;;;;;;;;;;773819;179;816316;-63
2023/12/09 10:22:46;;;;;;;36.85;20.45;;;;;;;;;;776072;177;922129;-64
2023/12/09 10:25:12;;;;;;;36.77;19.73;;;;;;;;;;769316;177;918157;-64
2023/12/09 10:27:37;;;;;;;35.57;19.77;;;;;;;;;;768306;177;819961;-63
2023/12/09 10:30:04;;;;;;;34.73;21.57;;;;;;;;;;771581;178;894306;-64
2023/12/09 10:32:29;;;;;;;42.33;23.37;;;;;;;;;;766612;181;915819;-63
2023/12/09 10:34:55;;;;;;;40.27;20.47;;;;;;;;;;771911;180;920125;-64
2023/12/09 10:37:21;;;;;;;43.90;21.83;;;;;;;;;;770440;180;916650;-66
2023/12/09 10:39:47;;;;;;;37.63;21.73;;;;;;;;;;776711;180;918197;-67
2023/12/09 10:42:13;;;;;;;39.47;20.57;;;;;;;;;;772755;180;919016;-65
2023/12/09 10:44:39;;;;;;;36.77;19.50;;;;;;;;;;772626;180;816694;-65
2023/12/09 10:47:05;;;;;;;34.20;19.13;;;;;;;;;;777228;180;813190;-65
2023/12/09 10:49:31;;;;;;;34.57;20.43;;;;;;;;;;773411;180;818937;-65
2023/12/09 10:51:57;;;;;;;37.90;20.50;;;;;;;;;;770532;180;925049;-63
2023/12/09 10:54:23;;;;;;;38.60;19.30;;;;;;;;;;775919;177;872317;-65
2023/12/09 10:56:49;;;;;;;38.43;20.17;;;;;;;;;;776424;180;656092;-63
2023/12/09 10:59:15;;;;;;;47.87;21.80;;;;;;;;;;771994;178;817786;-67
2023/12/09 11:01:41;;;;;;;36.30;20.00;;;;;;;;;;774328;177;905308;-66
2023/12/09 11:04:06;;;;;;;35.80;21.43;;;;;;;;;;765989;181;915676;-62
2023/12/09 11:06:33;;;;;;;35.43;19.70;;;;;;;;;;773222;180;920824;-62
2023/12/09 11:08:58;;;;;;;45.47;19.30;;;;;;;;;;764608;179;920059;-66
2023/12/09 11:11:24;;;;;;;36.90;22.03;;;;;;;;;;771108;178;921482;-65
2023/12/09 11:13:50;;;;;;;40.73;23.13;;;;;;;;;;768005;178;879813;-62
2023/12/09 11:16:18;;;;;;;39.50;20.70;;;;;;;;;;771787;177;918439;-62
2023/12/09 11:19:01;;;;;;;34.47;19.80;;;;;;;;;;776257;180;818258;-62
2023/12/09 11:21:27;;;;;;;42.67;23.87;;;;;;;;;;773331;180;626388;-66
2023/12/09 11:23:53;;;;;;;40.87;21.67;;;;;;;;;;769856;181;622361;-62
2023/12/09 11:26:25;;;;;;;35.77;22.67;;;;;;;;;;775626;177;634379;-63
2023/12/09 11:28:56;;;;;;;37.00;21.20;;;;;;;;;;778764;179;611358;-67
2023/12/09 11:31:21;;;;;;;39.67;22.77;;;;;;;;;;771618;179;715884;-63
2023/12/09 11:33:47;;;;;;;32.70;20.57;;;;;;;;;;771049;180;624969;-63
2023/12/09 11:36:13;;;;;;;36.37;20.07;;;;;;;;;;776401;180;634179;-63
2023/12/09 11:38:39;;;;;;;38.40;21.17;;;;;;;;;;770542;178;629880;-65
2023/12/09 11:41:06;;;;;;;40.37;22.40;;;;;;;;;;766338;181;904606;-63
2023/12/09 11:43:31;;;;;;;34.80;20.20;;;;;;;;;;770389;180;921748;-66
2023/12/09 11:45:57;;;;;;;34.08;20.10;;;;;;;;;;771279;179;1015859;-68
2023/12/09 11:48:22;;;;;;;44.53;24.20;;;;;;;;;;778726;180;812803;-63
2023/12/09 11:50:49;;;;;;;35.90;19.90;;;;;;;;;;770333;179;916753;-66
2023/12/09 11:53:15;;;;;;;37.40;20.33;;;;;;;;;;769727;179;915540;-65
2023/12/09 11:55:43;;;;;;;39.83;20.00;;;;;;;;;;776443;178;918113;-66
2023/12/09 11:58:09;;;;;;;33.70;18.00;;;;;;;;;;769805;177;918302;-63
2023/12/09 12:00:35;;;;;;;34.58;17.62;;;;;;;;;;763205;180;918785;-66
2023/12/09 12:03:00;;;;;;;38.67;21.00;;;;;;;;;;770996;181;922045;-65
2023/12/09 12:05:26;;;;;;;33.13;18.80;;;;;;;;;;774937;177;915903;-63
2023/12/09 12:07:52;;;;;;;33.77;19.80;;;;;;;;;;770749;177;987281;-62
2023/12/09 12:10:18;;;;;;;40.03;21.47;;;;;;;;;;763377;180;784761;-62
2023/12/09 12:12:44;;;;;;;36.30;19.87;;;;;;;;;;778469;179;630392;-62
2023/12/09 12:15:10;;;;;;;35.33;17.97;;;;;;;;;;773943;180;781243;-62
2023/12/09 12:17:37;;;;;;;35.07;19.27;;;;;;;;;;774455;177;922928;-64
2023/12/09 12:20:05;;;;;;;37.00;18.80;;;;;;;;;;773741;180;919118;-63
2023/12/09 12:22:29;;;;;;;33.77;19.57;;;;;;;;;;767759;181;903978;-64
2023/12/09 12:24:54;;;;;;;34.50;18.93;;;;;;;;;;770801;179;919844;-62
2023/12/09 12:27:20;;;;;;;35.80;20.43;;;;;;;;;;774370;177;957519;-62
2023/12/09 12:29:47;;;;;;;42.40;21.70;;;;;;;;;;772798;181;783175;-63
2023/12/09 12:32:14;;;;;;;37.77;21.47;;;;;;;;;;767363;180;937154;-62
2023/12/09 12:34:39;;;;;;;37.53;20.40;;;;;;;;;;775422;177;640742;-63
2023/12/09 12:37:06;;;;;;;33.20;18.63;;;;;;;;;;780743;178;636760;-62
2023/12/09 12:39:32;;;;;;;37.77;21.67;;;;;;;;;;773896;180;815857;-62
2023/12/09 12:41:58;;;;;;;33.50;21.17;;;;;;;;;;774597;179;867827;-62
2023/12/09 12:44:24;;;;;;;36.23;20.70;;;;;;;;;;777710;179;642629;-62
2023/12/09 12:46:49;;;;;;;39.43;21.10;;;;;;;;;;773460;180;713262;-65
2023/12/09 12:49:17;;;;;;;34.67;20.47;;;;;;;;;;770647;179;918059;-62
2023/12/09 12:51:43;;;;;;;32.50;20.43;;;;;;;;;;764902;180;916545;-62
2023/12/09 12:54:09;;;;;;;35.63;20.33;;;;;;;;;;771567;180;914308;-62
2023/12/09 12:56:35;;;;;;;36.90;20.60;;;;;;;;;;770286;180;921677;-62
2023/12/09 12:59:01;;;;;;;37.50;20.55;;;;;;;;;;771809;180;918166;-65
2023/12/09 13:01:27;;;;;;;33.30;19.37;;;;;;;;;;778301;180;630484;-66
2023/12/09 13:03:52;;;;;;;34.53;18.73;;;;;;;;;;774547;177;714691;-64
2023/12/09 13:06:20;;;;;;;34.37;19.93;;;;;;;;;;772315;177;918872;-66
2023/12/09 13:08:46;;;;;;;31.30;20.27;;;;;;;;;;777085;180;918939;-62
2023/12/09 13:11:13;;;;;;;37.03;19.77;;;;;;;;;;772326;178;917829;-63
2023/12/09 13:13:39;;;;;;;34.97;20.75;;;;;;;;;;770856;177;860545;-66
2023/12/09 13:16:05;;;;;;;40.03;22.50;;;;;;;;;;765962;179;919312;-66
2023/12/09 13:18:31;;;;;;;43.23;22.80;;;;;;;;;;772751;179;788889;-62
2023/12/09 13:20:57;;;;;;;33.13;19.73;;;;;;;;;;768164;179;941636;-63
2023/12/09 13:23:23;;;;;;;37.33;19.70;;;;;;;;;;772859;179;919385;-62
2023/12/09 13:25:48;;;;;;;37.35;20.60;;;;;;;;;;776030;180;916686;-62
2023/12/09 13:28:14;;;;;;;27.97;17.47;;;;;;;;;;772049;177;933887;-62
2023/12/09 13:30:40;;;;;;;31.67;19.40;;;;;;;;;;771969;178;918076;-65
2023/12/09 13:33:06;;;;;;;29.77;18.17;;;;;;;;;;777779;180;818128;-65
2023/12/09 13:35:32;;;;;;;31.33;17.53;;;;;;;;;;767449;180;920391;-62
2023/12/09 13:37:58;;;;;;;30.67;17.23;;;;;;;;;;769894;181;923262;-63
2023/12/09 13:40:24;;;;;;;30.53;17.33;;;;;;;;;;772782;181;836366;-65
2023/12/09 13:42:49;;;;;;;33.92;18.30;;;;;;;;;;769857;180;814023;-62
2023/12/09 13:45:17;;;;;;;37.17;17.57;;;;;;;;;;772910;177;817216;-62
2023/12/09 13:47:41;;;;;;;24.70;14.27;;;;;;;;;;766616;180;830071;-63
2023/12/09 13:50:08;;;;;;;29.80;17.47;;;;;;;;;;766336;181;815091;-62
2023/12/09 13:52:34;;;;;;;29.80;16.43;;;;;;;;;;768882;180;916604;-62
2023/12/09 13:55:01;;;;;;;33.63;17.87;;;;;;;;;;769883;177;1020828;-61
2023/12/09 13:57:26;;;;;;;27.60;17.07;;;;;;;;;;778519;180;849012;-65